Current Weather

De Kalb Taylor Muni Arpt

De Kalb Taylor Muni Arpt, Illinois (KDKB)

Report from: Monday, May 23, 2022 2:35 AM CDT
Current time: Monday, May 23, 2022 3:07 AM CDT

Nearby weather
Weather history
Weather forecast

Temperature6.2°C (43.2°F)
Wind chill4.7°C (40.5°F)
Dew point2.5°C (36.5°F)
Winds 4 kts (2.1 m/s, 4.6 mph) East-Northeast (70°)
Visibility10 mi. (16.1 km)
Clouds Scattered clouds 7,000 ft. (2,134 m)
Altimeter30.37 in.Hg (1028 mB)
Relative humidity77 %
Density altitude-1,466 ft. (-447 m)
Remarks Fully automated report
Automated weather observing station with precipitation discriminator
Flight conditions Visual Meteorological Conditions
Raw dataKDKB 230735Z AUTO 07004KT 10SM SCT070 06/03 A3037 RMK AO2 T00620025
An error has occurred. This application may no longer respond until reloaded. Reload 🗙